Concordia, KS

11:45 PM CDT on April 22, 2018 (GMT -0500)
Blosser Municipal

Weather History for KCNK - January, 2013

Change the Weather History Date:

Thursday, January 10, 2013

  Actual Average Record
Temperature  
Mean Temperature 35 °F 28 °F  
Max Temperature 41 °F 38 °F 78 °F (1911)
Min Temperature 29 °F 19 °F -16 °F (1982)
Degree Days  
Heating Degree Days 30 37  
Month to date heating degree days 370 370  
Since 1 July heating degree days 2397 2547  
Cooling Degree Days 0 0  
Month to date cooling degree days 0 0  
Year to date cooling degree days 0 0  
Moisture  
Dew Point 36 °F    
Average Humidity 85    
Maximum Humidity 100    
Minimum Humidity 70    
Precipitation  
Precipitation 0.37 in 0.01 in 0.51 in (1918)
Month to date precipitation 0.37 0.15  
Year to date precipitation 0.37 0.15  
Snow  
Snow 0.00 in 0.20 in 6.00 in (1975)
Month to date snowfall T 1.7  
Year to date snowfall T 1.7  
Since 1 July snowfall 8.5 8.2  
Snow Depth T in    
Sea Level Pressure  
Sea Level Pressure 29.90 in    
Wind  
Wind Speed 6 mph (SE)    
Max Wind Speed 14 mph    
Max Gust Speed 20 mph    
Visibility 2 miles    
Events Fog , Rain    
T = Trace of Precipitation, MM = Missing Value Source: NWS Daily Summary

Daily Weather History Graph

Daily Weather History Graph

Search for Another Location

Airport or City:

Astronomy

Jan. 10, 2013 Rise Set
Actual Time 7:50 AM CST 5:26 PM CST
Civil Twilight 7:20 AM CST 5:55 PM CST
Nautical Twilight 6:47 AM CST 6:29 PM CST
Astronomical Twilight 6:15 AM CST 7:01 PM CST
Moon 6:31 AM CST (1/10) 4:35 PM CST (1/10)
Length of Visible Light 10h 34m
Length of Day
9h 35m
Waning Crescent, 2% of the Moon is Illuminated
Jan 10
Waning Crescent
Jan 11
New
Jan 18
First Quarter
Jan 26
Full
Feb 3
Last Quarter

Hourly Weather History & Observations

Time (CST) Temp. Windchill Dew Point Humidity Pressure Visibility Wind Dir Wind Speed Gust Speed Precip Events Conditions
12:55 AM 30.0 °F - 28.0 °F 92% 30.30 in 5.0 mi Calm Calm - N/A   Clear
1:55 AM 34.0 °F 31.0 °F 30.0 °F 85% 30.28 in 7.0 mi ESE 3.5 mph - N/A   Partly Cloudy
2:55 AM 34.0 °F 29.8 °F 30.0 °F 85% 30.25 in 7.0 mi East 4.6 mph - N/A   Clear
3:55 AM 35.1 °F 30.1 °F 30.0 °F 82% 30.21 in 8.0 mi East 5.8 mph - N/A   Mostly Cloudy
4:55 AM 36.0 °F 29.6 °F 28.9 °F 76% 30.16 in 9.0 mi East 8.1 mph - N/A   Overcast
5:55 AM 37.0 °F 30.4 °F 28.9 °F 73% 30.11 in 10.0 mi East 9.2 mph - N/A   Overcast
6:28 AM 37.4 °F 29.3 °F 30.2 °F 75% 30.07 in 9.0 mi ESE 12.7 mph - 0.00 in Rain Light Rain
6:52 AM 37.4 °F 29.8 °F 30.2 °F 75% 30.07 in 5.0 mi ESE 11.5 mph - 0.00 in Rain Light Rain
6:55 AM 36.0 °F 27.5 °F 30.9 °F 82% 30.10 in 4.0 mi ESE 12.7 mph - 0.00 in Rain Light Rain
7:14 AM 35.6 °F 27.1 °F 33.8 °F 93% 30.06 in 2.0 mi East 12.7 mph - 0.01 in Rain Light Rain
7:21 AM 35.6 °F 27.5 °F 33.8 °F 93% 30.06 in 3.0 mi East 11.5 mph - 0.01 in Rain Light Rain
7:28 AM 35.6 °F 27.1 °F 33.8 °F 93% 30.05 in 2.5 mi East 12.7 mph - 0.01 in Rain Light Rain
7:35 AM 35.6 °F 27.1 °F 33.8 °F 93% 30.05 in 1.8 mi ESE 12.7 mph - 0.01 in Rain Light Rain
7:42 AM 35.6 °F 28.0 °F 33.8 °F 93% 30.05 in 2.5 mi East 10.4 mph - 0.01 in Rain Light Rain
7:55 AM 35.1 °F 26.9 °F 34.0 °F 96% 30.07 in 1.8 mi East 11.5 mph - 0.02 in Rain Light Rain
7:59 AM 35.6 °F 27.1 °F 33.8 °F 93% 30.03 in 1.2 mi East 12.7 mph - 0.00 in Rain Light Rain
8:21 AM 35.6 °F 28.0 °F 33.8 °F 93% 30.03 in 0.5 mi ESE 10.4 mph - 0.00 in Fog Fog
8:41 AM 35.6 °F 28.6 °F 35.6 °F 100% 30.02 in 1.0 mi ESE 9.2 mph - 0.01 in Rain Light Rain
8:55 AM 36.0 °F 29.0 °F 35.1 °F 97% 30.05 in 0.8 mi ESE 9.2 mph - 0.01 in Rain Light Rain
9:40 AM 35.6 °F 28.6 °F 35.6 °F 100% 29.99 in 1.5 mi East 9.2 mph - 0.06 in Rain Light Rain
9:55 AM 36.0 °F 29.6 °F 35.1 °F 97% 30.02 in 1.5 mi ESE 8.1 mph - 0.06 in Rain Light Rain
10:16 AM 37.4 °F 31.4 °F 35.6 °F 93% 30.00 in 1.0 mi SE 8.1 mph - N/A Rain Rain
10:29 AM 37.4 °F 32.1 °F 35.6 °F 93% 29.99 in 0.8 mi SE 6.9 mph - 0.09 in Rain Heavy Rain
10:42 AM 37.4 °F 32.1 °F 35.6 °F 93% 29.98 in 1.0 mi ESE 6.9 mph - 0.15 in Rain Rain
10:55 AM 37.0 °F 33.3 °F 37.0 °F 100% 30.00 in 0.8 mi East 4.6 mph - 0.17 in Rain Rain
11:24 AM 37.4 °F 33.8 °F 35.6 °F 93% 29.94 in 1.0 mi East 4.6 mph - 0.08 in Rain Light Rain
11:32 AM 37.4 °F 33.8 °F 35.6 °F 93% 29.94 in 1.8 mi East 4.6 mph - 0.09 in Rain Light Rain
11:42 AM 37.4 °F 34.9 °F 35.6 °F 93% 29.93 in 2.0 mi East 3.5 mph - N/A Rain Light Rain
11:55 AM 37.4 °F 33.8 °F 37.4 °F 100% 29.91 in 3.0 mi East 4.6 mph - N/A Rain Light Rain
12:42 PM 37.4 °F 32.8 °F 37.4 °F 100% 29.88 in 2.0 mi ESE 5.8 mph - N/A   Overcast
12:47 PM 37.4 °F 32.8 °F 37.4 °F 100% 29.88 in 1.5 mi East 5.8 mph - 0.00 in   Overcast
12:55 PM 37.9 °F 34.4 °F 37.0 °F 97% 29.90 in 1.2 mi East 4.6 mph - 0.00 in   Overcast
1:12 PM 37.4 °F 34.9 °F 37.4 °F 100% 29.86 in 1.5 mi East 3.5 mph - 0.00 in   Overcast
1:23 PM 39.2 °F - 37.4 °F 93% 29.85 in 1.8 mi Calm Calm - 0.00 in   Overcast
1:30 PM 37.4 °F - 37.4 °F 100% 29.85 in 2.5 mi Calm Calm - 0.00 in   Overcast
1:38 PM 39.2 °F 37.0 °F 37.4 °F 93% 29.85 in 3.0 mi ESE 3.5 mph - 0.00 in   Overcast
1:48 PM 39.2 °F 35.9 °F 37.4 °F 93% 29.83 in 2.5 mi ESE 4.6 mph - 0.00 in   Overcast
1:55 PM 39.0 °F 35.7 °F 37.9 °F 96% 29.86 in 2.5 mi ESE 4.6 mph - 0.00 in   Overcast
2:20 PM 39.2 °F 33.6 °F 37.4 °F 93% 29.83 in 1.5 mi SSE 8.1 mph - N/A   Overcast
2:28 PM 39.2 °F 34.2 °F 37.4 °F 93% 29.82 in 1.0 mi SE 6.9 mph - N/A   Overcast
2:35 PM 39.2 °F 34.2 °F 37.4 °F 93% 29.82 in 0.8 mi SE 6.9 mph - N/A   Overcast
2:55 PM 39.9 °F 35.8 °F 39.9 °F 100% 29.85 in 1.0 mi SE 5.8 mph - 0.01 in Rain Light Rain
3:06 PM 39.2 °F 33.0 °F 39.2 °F 100% 29.83 in 1.5 mi SE 9.2 mph - 0.00 in   Overcast
3:16 PM 39.2 °F 34.2 °F 39.2 °F 100% 29.82 in 2.0 mi SE 6.9 mph - 0.00 in   Overcast
3:28 PM 39.2 °F 37.0 °F 39.2 °F 100% 29.81 in 3.0 mi SSE 3.5 mph - 0.00 in   Overcast
3:53 PM 41.0 °F - 39.2 °F 93% 29.80 in 2.0 mi Calm Calm - 0.00 in   Overcast
3:55 PM 41.0 °F - 39.0 °F 93% 29.82 in 2.0 mi Calm Calm - 0.00 in   Overcast
4:00 PM 39.2 °F - 39.2 °F 100% 29.79 in 1.2 mi Calm Calm - N/A   Overcast
4:10 PM 39.2 °F - 39.2 °F 100% 29.80 in 0.5 mi Calm Calm - N/A Fog Fog
4:55 PM 39.9 °F - 39.0 °F 97% 29.79 in 0.2 mi Calm Calm - N/A Fog Fog
5:55 PM 37.9 °F 35.5 °F 37.9 °F 100% 29.79 in 0.2 mi ESE 3.5 mph - N/A Fog Fog
6:55 PM 39.0 °F 35.7 °F 39.0 °F 100% 29.80 in 0.2 mi South 4.6 mph - N/A Fog Fog
7:21 PM 39.2 °F 35.0 °F 39.2 °F 100% 29.77 in 1.0 mi South 5.8 mph - N/A   Overcast
7:27 PM 39.2 °F 34.2 °F 39.2 °F 100% 29.77 in 1.0 mi SSW 6.9 mph - N/A   Overcast
7:43 PM 39.2 °F 35.9 °F 39.2 °F 100% 29.75 in 1.2 mi South 4.6 mph - 0.01 in   Overcast
7:52 PM 39.2 °F 35.0 °F 39.2 °F 100% 29.76 in 1.8 mi SSW 5.8 mph - 0.01 in   Overcast
7:55 PM 39.9 °F 35.1 °F 39.0 °F 97% 29.78 in 2.0 mi SSW 6.9 mph - 0.01 in   Overcast
8:03 PM 39.2 °F 34.2 °F 39.2 °F 100% 29.76 in 3.0 mi SSW 6.9 mph - N/A   Overcast
8:22 PM 39.2 °F 35.0 °F 39.2 °F 100% 29.74 in 1.8 mi SSE 5.8 mph - N/A   Overcast
8:24 PM 39.2 °F 35.0 °F 39.2 °F 100% 29.74 in 1.2 mi South 5.8 mph - N/A   Overcast
8:30 PM 39.2 °F 35.0 °F 39.2 °F 100% 29.74 in 0.8 mi South 5.8 mph - N/A   Overcast
8:38 PM 39.2 °F 35.9 °F 39.2 °F 100% 29.74 in 0.5 mi SSE 4.6 mph - N/A Fog Fog
8:48 PM 39.2 °F 35.9 °F 39.2 °F 100% 29.75 in 0.2 mi South 4.6 mph - N/A Fog Fog
8:55 PM 39.9 °F 37.8 °F 39.0 °F 97% 29.76 in 0.2 mi South 3.5 mph - N/A Fog Fog
9:03 PM 39.2 °F 35.9 °F 39.2 °F 100% 29.74 in 0.2 mi South 4.6 mph - N/A Fog Fog
9:55 PM 39.9 °F 35.8 °F 39.9 °F 100% 29.72 in 0.2 mi South 5.8 mph - N/A Fog Fog
10:12 PM 39.2 °F 34.2 °F 37.4 °F 93% 29.69 in 0.2 mi SSE 6.9 mph - N/A Fog Fog
10:55 PM 39.0 °F 32.8 °F 37.9 °F 96% 29.69 in 0.2 mi SE 9.2 mph - N/A Fog Fog
11:55 PM 39.9 °F 35.8 °F 39.9 °F 100% 29.70 in 0.2 mi South 5.8 mph - N/A Fog Fog